Dickens, NE (69132)

10:04 PM CDT on October 01, 2014 (GMT -0500)
Sisco Fertilizer | Change Station
CLOSE
Current Station
Personal Weather Station
Location: Elsie, NE
Elevation: 3415 ft
Nearby Weather Stations

Elev 3415 ft 40.84 °N, 101.40 °W | Updated 9 seconds ago

Partly Cloudy
Partly Cloudy
51.2 °F
Feels Like 51.2 °F
N
27.0
Wind Variable Wind from WNW
Gusts 33.0 mph

Today
High -- | Low -- °F
--% Chance of Precip.
Yesterday
High -- | Low -- °F
Precip. -- in
7:40 AM 7:25 PM
First Quarter, 54% visible
Pressure 29.81 in
Visibility 10.0 miles
Clouds Few 11000 ft
Dew Point 49 °F
Humidity 91%
Rainfall 0.04 in
Snow Depth Not available.
UV 0 out of 12
Pollen 4.00 out of 12
Air Quality Not available.
Flu Activity Not available.
METAR KLBF 020253Z AUTO 00000KT 10SM FEW110 14/09 A2984 RMK AO2 LTG DSNT N AND W SLP093 T01440094 53020

More Conditions Fewer Conditions

Pressure 29.81 in
Visibility 10.0 miles
Clouds Few 11000 ft
Dew Point 49 °F
Humidity 91%
Rainfall 0.04 in
Snow Depth Not available.
UV 0 out of 12
Pollen 4.00 out of 12
Air Quality Not available.
Flu Activity Not available.
METAR KLBF 020253Z AUTO 00000KT 10SM FEW110 14/09 A2984 RMK AO2 LTG DSNT N AND W SLP093 T01440094 53020

More Conditions Fewer Conditions

10-Day Weather Forecast

Almanac

Astronomy

Oct. 01, 2014 Rise Set
Actual Time 7:40 AM CDT 7:25 PM CDT
Civil Twilight 7:13 AM CDT 7:53 PM CDT
Nautical Twilight 6:41 AM CDT 8:24 PM CDT
Astronomical Twilight 6:09 AM CDT 8:56 PM CDT
Moon 2:44 PM CDT (10/1) No Moon Set
Length of Visible Light 12h 39m
Length of Day
11h 45m
Tomorrow will be 2m 41s shorter.
First Quarter, 54% of the Moon is Illuminated
Today
First Quarter
Oct 8
Full
Oct 15
Last Quarter
Oct 23
New
Oct 30
First Quarter

Today's Extremes

State Highs State Lows

Community

WunderPhotos

Upload Photos

1,758,157 photos uploaded!

WunderBlogs® & News

Nearby

Snow Depth

Station Depth Elevation
No new snow has been reported.

Earthquake Activity

City Distance Mag. Time & Date
No recent earthquake activity has been reported nearby.
Minimum magnitude displayed is 2.5.

Coastal Water Temperatures

Place Temperature
No Stations Reporting

Nearby Weather Stations